sensor_id;sensor_type;location;lat;lon;timestamp;P1;durP1;ratioP1;P2;durP2;ratioP2
3155;SDS011;1588;50.892;7.082;2023-06-04T00:03:47;1.97;;;1.13;;
3155;SDS011;1588;50.892;7.082;2023-06-04T00:08:49;2.70;;;1.20;;
3155;SDS011;1588;50.892;7.082;2023-06-04T00:13:51;6.00;;;1.40;;
3155;SDS011;1588;50.892;7.082;2023-06-04T00:18:55;2.00;;;1.47;;
3155;SDS011;1588;50.892;7.082;2023-06-04T00:23:59;1.97;;;1.10;;
3155;SDS011;1588;50.892;7.082;2023-06-04T00:29:01;1.83;;;1.20;;
3155;SDS011;1588;50.892;7.082;2023-06-04T00:34:05;1.20;;;1.10;;
3155;SDS011;1588;50.892;7.082;2023-06-04T00:39:08;2.80;;;1.57;;
3155;SDS011;1588;50.892;7.082;2023-06-04T00:44:11;3.40;;;2.10;;
3155;SDS011;1588;50.892;7.082;2023-06-04T00:49:15;2.50;;;1.87;;
3155;SDS011;1588;50.892;7.082;2023-06-04T00:54:18;4.33;;;1.60;;
3155;SDS011;1588;50.892;7.082;2023-06-04T00:59:22;3.70;;;1.93;;
3155;SDS011;1588;50.892;7.082;2023-06-04T01:04:27;3.90;;;1.73;;
3155;SDS011;1588;50.892;7.082;2023-06-04T01:09:34;2.90;;;1.83;;
3155;SDS011;1588;50.892;7.082;2023-06-04T01:14:38;5.40;;;2.17;;
3155;SDS011;1588;50.892;7.082;2023-06-04T01:19:48;2.40;;;1.80;;
3155;SDS011;1588;50.892;7.082;2023-06-04T01:25:03;14.50;;;2.10;;
3155;SDS011;1588;50.892;7.082;2023-06-04T01:30:10;2.80;;;1.73;;
3155;SDS011;1588;50.892;7.082;2023-06-04T01:35:15;2.83;;;1.87;;
3155;SDS011;1588;50.892;7.082;2023-06-04T01:40:20;2.40;;;1.63;;
3155;SDS011;1588;50.892;7.082;2023-06-04T01:45:26;4.10;;;1.77;;
3155;SDS011;1588;50.892;7.082;2023-06-04T01:50:30;2.90;;;1.63;;
3155;SDS011;1588;50.892;7.082;2023-06-04T01:55:33;2.97;;;1.87;;
3155;SDS011;1588;50.892;7.082;2023-06-04T02:00:36;2.57;;;1.90;;
3155;SDS011;1588;50.892;7.082;2023-06-04T02:05:39;5.77;;;1.67;;
3155;SDS011;1588;50.892;7.082;2023-06-04T02:10:45;4.13;;;2.37;;
3155;SDS011;1588;50.892;7.082;2023-06-04T02:15:48;2.07;;;1.87;;
3155;SDS011;1588;50.892;7.082;2023-06-04T02:20:52;2.03;;;1.50;;
3155;SDS011;1588;50.892;7.082;2023-06-04T02:25:54;2.73;;;1.73;;
3155;SDS011;1588;50.892;7.082;2023-06-04T02:30:57;3.13;;;1.90;;
3155;SDS011;1588;50.892;7.082;2023-06-04T02:36:01;4.40;;;1.70;;
3155;SDS011;1588;50.892;7.082;2023-06-04T02:41:03;2.60;;;1.50;;
3155;SDS011;1588;50.892;7.082;2023-06-04T02:46:06;2.60;;;1.70;;
3155;SDS011;1588;50.892;7.082;2023-06-04T02:51:10;2.80;;;1.80;;
3155;SDS011;1588;50.892;7.082;2023-06-04T02:56:12;2.60;;;1.70;;
3155;SDS011;1588;50.892;7.082;2023-06-04T03:01:17;2.70;;;1.73;;
3155;SDS011;1588;50.892;7.082;2023-06-04T03:06:22;2.57;;;1.37;;
3155;SDS011;1588;50.892;7.082;2023-06-04T03:11:27;1.90;;;1.50;;
3155;SDS011;1588;50.892;7.082;2023-06-04T03:16:29;5.40;;;1.37;;
3155;SDS011;1588;50.892;7.082;2023-06-04T03:21:35;2.93;;;1.63;;
3155;SDS011;1588;50.892;7.082;2023-06-04T03:26:40;2.77;;;1.50;;
3155;SDS011;1588;50.892;7.082;2023-06-04T03:31:43;5.90;;;1.50;;
3155;SDS011;1588;50.892;7.082;2023-06-04T03:36:48;4.10;;;1.77;;
3155;SDS011;1588;50.892;7.082;2023-06-04T03:41:51;5.40;;;1.67;;
3155;SDS011;1588;50.892;7.082;2023-06-04T03:46:53;4.20;;;1.47;;
3155;SDS011;1588;50.892;7.082;2023-06-04T03:51:58;2.47;;;1.50;;
3155;SDS011;1588;50.892;7.082;2023-06-04T03:57:00;2.73;;;1.53;;
3155;SDS011;1588;50.892;7.082;2023-06-04T04:02:03;1.40;;;1.20;;
3155;SDS011;1588;50.892;7.082;2023-06-04T04:07:08;4.77;;;1.73;;
3155;SDS011;1588;50.892;7.082;2023-06-04T04:12:11;2.20;;;1.40;;
3155;SDS011;1588;50.892;7.082;2023-06-04T04:17:13;2.37;;;1.50;;
3155;SDS011;1588;50.892;7.082;2023-06-04T04:22:17;1.43;;;1.20;;
3155;SDS011;1588;50.892;7.082;2023-06-04T04:27:21;3.07;;;1.43;;
3155;SDS011;1588;50.892;7.082;2023-06-04T04:32:23;7.20;;;1.80;;
3155;SDS011;1588;50.892;7.082;2023-06-04T04:37:28;3.00;;;1.50;;
3155;SDS011;1588;50.892;7.082;2023-06-04T04:42:31;3.10;;;1.63;;
3155;SDS011;1588;50.892;7.082;2023-06-04T04:47:33;5.90;;;1.80;;
3155;SDS011;1588;50.892;7.082;2023-06-04T04:52:37;5.87;;;1.80;;
3155;SDS011;1588;50.892;7.082;2023-06-04T04:57:40;2.33;;;1.50;;
3155;SDS011;1588;50.892;7.082;2023-06-04T05:02:42;4.23;;;1.90;;
3155;SDS011;1588;50.892;7.082;2023-06-04T05:07:46;1.77;;;1.57;;
3155;SDS011;1588;50.892;7.082;2023-06-04T05:12:52;3.77;;;2.07;;
3155;SDS011;1588;50.892;7.082;2023-06-04T05:17:55;2.00;;;1.63;;
3155;SDS011;1588;50.892;7.082;2023-06-04T05:23:01;3.43;;;1.73;;
3155;SDS011;1588;50.892;7.082;2023-06-04T05:28:04;6.53;;;1.90;;
3155;SDS011;1588;50.892;7.082;2023-06-04T05:33:07;13.77;;;1.53;;
3155;SDS011;1588;50.892;7.082;2023-06-04T05:38:20;4.33;;;1.70;;
3155;SDS011;1588;50.892;7.082;2023-06-04T05:43:26;2.47;;;1.30;;
3155;SDS011;1588;50.892;7.082;2023-06-04T05:48:28;2.80;;;1.50;;
3155;SDS011;1588;50.892;7.082;2023-06-04T05:53:32;2.30;;;1.50;;
3155;SDS011;1588;50.892;7.082;2023-06-04T05:58:35;4.77;;;1.73;;
3155;SDS011;1588;50.892;7.082;2023-06-04T06:03:38;3.40;;;1.77;;
3155;SDS011;1588;50.892;7.082;2023-06-04T06:08:42;2.50;;;1.73;;
3155;SDS011;1588;50.892;7.082;2023-06-04T06:13:45;13.00;;;1.97;;
3155;SDS011;1588;50.892;7.082;2023-06-04T06:18:48;2.37;;;1.50;;
3155;SDS011;1588;50.892;7.082;2023-06-04T06:23:53;3.43;;;1.70;;
3155;SDS011;1588;50.892;7.082;2023-06-04T06:28:56;1.60;;;1.50;;
3155;SDS011;1588;50.892;7.082;2023-06-04T06:33:58;2.90;;;1.70;;
3155;SDS011;1588;50.892;7.082;2023-06-04T06:39:03;2.70;;;1.73;;
3155;SDS011;1588;50.892;7.082;2023-06-04T06:44:05;2.10;;;1.67;;
3155;SDS011;1588;50.892;7.082;2023-06-04T06:49:08;3.23;;;1.60;;
3155;SDS011;1588;50.892;7.082;2023-06-04T06:54:12;8.00;;;2.40;;
3155;SDS011;1588;50.892;7.082;2023-06-04T06:59:17;4.00;;;2.10;;
3155;SDS011;1588;50.892;7.082;2023-06-04T07:04:21;5.83;;;2.27;;
3155;SDS011;1588;50.892;7.082;2023-06-04T07:09:25;3.77;;;1.80;;
3155;SDS011;1588;50.892;7.082;2023-06-04T07:14:30;2.70;;;1.60;;
3155;SDS011;1588;50.892;7.082;2023-06-04T07:19:32;2.03;;;1.83;;
3155;SDS011;1588;50.892;7.082;2023-06-04T07:24:36;5.30;;;1.90;;
3155;SDS011;1588;50.892;7.082;2023-06-04T07:29:39;1.50;;;1.40;;
3155;SDS011;1588;50.892;7.082;2023-06-04T07:34:44;4.60;;;1.97;;
3155;SDS011;1588;50.892;7.082;2023-06-04T07:39:48;2.90;;;1.70;;
3155;SDS011;1588;50.892;7.082;2023-06-04T07:44:51;3.60;;;1.87;;
3155;SDS011;1588;50.892;7.082;2023-06-04T07:49:54;7.50;;;2.00;;
3155;SDS011;1588;50.892;7.082;2023-06-04T07:54:58;4.30;;;2.00;;
3155;SDS011;1588;50.892;7.082;2023-06-04T08:00:02;3.33;;;2.07;;
3155;SDS011;1588;50.892;7.082;2023-06-04T08:05:06;6.63;;;2.10;;
3155;SDS011;1588;50.892;7.082;2023-06-04T08:10:10;2.33;;;1.60;;
3155;SDS011;1588;50.892;7.082;2023-06-04T08:15:13;4.10;;;1.70;;
3155;SDS011;1588;50.892;7.082;2023-06-04T08:20:16;2.43;;;1.70;;
3155;SDS011;1588;50.892;7.082;2023-06-04T08:25:20;1.87;;;1.67;;
3155;SDS011;1588;50.892;7.082;2023-06-04T08:30:23;2.80;;;1.60;;
3155;SDS011;1588;50.892;7.082;2023-06-04T08:35:28;6.70;;;2.30;;
3155;SDS011;1588;50.892;7.082;2023-06-04T08:40:33;3.00;;;1.57;;
3155;SDS011;1588;50.892;7.082;2023-06-04T08:45:38;6.93;;;1.80;;
3155;SDS011;1588;50.892;7.082;2023-06-04T08:50:42;1.97;;;1.60;;
3155;SDS011;1588;50.892;7.082;2023-06-04T08:55:51;3.30;;;1.53;;
3155;SDS011;1588;50.892;7.082;2023-06-04T09:00:56;3.97;;;1.30;;
3155;SDS011;1588;50.892;7.082;2023-06-04T09:05:58;2.47;;;1.33;;
3155;SDS011;1588;50.892;7.082;2023-06-04T09:11:03;3.10;;;1.50;;
3155;SDS011;1588;50.892;7.082;2023-06-04T09:16:09;2.50;;;1.90;;
3155;SDS011;1588;50.892;7.082;2023-06-04T09:21:12;3.87;;;1.70;;
3155;SDS011;1588;50.892;7.082;2023-06-04T09:26:16;1.93;;;1.40;;
3155;SDS011;1588;50.892;7.082;2023-06-04T09:31:19;2.47;;;1.57;;
3155;SDS011;1588;50.892;7.082;2023-06-04T09:36:22;2.40;;;1.33;;
3155;SDS011;1588;50.892;7.082;2023-06-04T09:41:33;1.60;;;1.50;;
3155;SDS011;1588;50.892;7.082;2023-06-04T09:46:36;4.53;;;1.63;;
3155;SDS011;1588;50.892;7.082;2023-06-04T09:51:46;1.73;;;1.33;;
3155;SDS011;1588;50.892;7.082;2023-06-04T09:56:50;2.97;;;1.80;;
3155;SDS011;1588;50.892;7.082;2023-06-04T10:01:53;1.90;;;1.40;;
3155;SDS011;1588;50.892;7.082;2023-06-04T10:06:56;3.70;;;1.57;;
3155;SDS011;1588;50.892;7.082;2023-06-04T10:12:00;6.57;;;1.70;;
3155;SDS011;1588;50.892;7.082;2023-06-04T10:17:03;3.37;;;1.90;;
3155;SDS011;1588;50.892;7.082;2023-06-04T10:22:07;6.37;;;1.70;;
3155;SDS011;1588;50.892;7.082;2023-06-04T10:27:13;1.40;;;1.30;;
3155;SDS011;1588;50.892;7.082;2023-06-04T10:32:16;2.17;;;1.40;;
3155;SDS011;1588;50.892;7.082;2023-06-04T10:37:20;6.27;;;1.67;;
3155;SDS011;1588;50.892;7.082;2023-06-04T10:42:25;2.03;;;1.40;;
3155;SDS011;1588;50.892;7.082;2023-06-04T10:47:27;3.67;;;1.60;;
3155;SDS011;1588;50.892;7.082;2023-06-04T10:52:33;1.93;;;1.63;;
3155;SDS011;1588;50.892;7.082;2023-06-04T10:57:37;2.23;;;1.37;;
3155;SDS011;1588;50.892;7.082;2023-06-04T11:02:49;1.50;;;1.40;;
3155;SDS011;1588;50.892;7.082;2023-06-04T11:07:55;4.97;;;1.33;;
3155;SDS011;1588;50.892;7.082;2023-06-04T11:13:03;1.50;;;1.10;;
3155;SDS011;1588;50.892;7.082;2023-06-04T11:18:06;3.13;;;1.93;;
3155;SDS011;1588;50.892;7.082;2023-06-04T11:23:11;5.23;;;1.50;;
3155;SDS011;1588;50.892;7.082;2023-06-04T11:28:16;2.27;;;1.70;;
3155;SDS011;1588;50.892;7.082;2023-06-04T11:33:19;1.50;;;1.37;;
3155;SDS011;1588;50.892;7.082;2023-06-04T11:38:22;1.93;;;1.40;;
3155;SDS011;1588;50.892;7.082;2023-06-04T11:43:26;3.00;;;1.50;;
3155;SDS011;1588;50.892;7.082;2023-06-04T11:48:30;2.50;;;1.47;;
3155;SDS011;1588;50.892;7.082;2023-06-04T11:53:32;7.73;;;1.53;;
3155;SDS011;1588;50.892;7.082;2023-06-04T11:58:37;3.20;;;1.67;;
3155;SDS011;1588;50.892;7.082;2023-06-04T12:03:41;2.50;;;1.30;;
3155;SDS011;1588;50.892;7.082;2023-06-04T12:08:45;1.40;;;1.30;;
3155;SDS011;1588;50.892;7.082;2023-06-04T12:13:52;3.33;;;1.23;;
3155;SDS011;1588;50.892;7.082;2023-06-04T12:19:05;1.40;;;1.30;;
3155;SDS011;1588;50.892;7.082;2023-06-04T12:24:09;3.07;;;1.57;;
3155;SDS011;1588;50.892;7.082;2023-06-04T12:29:15;2.07;;;1.50;;
3155;SDS011;1588;50.892;7.082;2023-06-04T12:34:20;1.80;;;1.50;;
3155;SDS011;1588;50.892;7.082;2023-06-04T12:39:23;2.97;;;1.60;;
3155;SDS011;1588;50.892;7.082;2023-06-04T12:44:27;1.80;;;1.20;;
3155;SDS011;1588;50.892;7.082;2023-06-04T12:49:30;2.23;;;1.30;;
3155;SDS011;1588;50.892;7.082;2023-06-04T12:54:33;3.13;;;1.30;;
3155;SDS011;1588;50.892;7.082;2023-06-04T12:59:37;1.53;;;1.40;;
3155;SDS011;1588;50.892;7.082;2023-06-04T13:04:39;1.63;;;1.50;;
3155;SDS011;1588;50.892;7.082;2023-06-04T13:09:45;2.40;;;1.60;;
3155;SDS011;1588;50.892;7.082;2023-06-04T13:14:48;5.37;;;1.70;;
3155;SDS011;1588;50.892;7.082;2023-06-04T13:19:51;2.20;;;1.40;;
3155;SDS011;1588;50.892;7.082;2023-06-04T13:24:53;4.83;;;1.43;;
3155;SDS011;1588;50.892;7.082;2023-06-04T13:29:58;2.30;;;2.00;;
3155;SDS011;1588;50.892;7.082;2023-06-04T13:35:00;1.77;;;1.40;;
3155;SDS011;1588;50.892;7.082;2023-06-04T13:40:03;4.03;;;1.80;;
3155;SDS011;1588;50.892;7.082;2023-06-04T13:45:08;1.47;;;1.37;;
3155;SDS011;1588;50.892;7.082;2023-06-04T13:50:12;2.03;;;1.70;;
3155;SDS011;1588;50.892;7.082;2023-06-04T13:55:14;2.00;;;1.70;;
3155;SDS011;1588;50.892;7.082;2023-06-04T14:00:18;2.40;;;1.70;;
3155;SDS011;1588;50.892;7.082;2023-06-04T14:05:24;3.40;;;1.67;;
3155;SDS011;1588;50.892;7.082;2023-06-04T14:10:28;1.40;;;1.30;;
3155;SDS011;1588;50.892;7.082;2023-06-04T14:15:32;2.13;;;1.50;;
3155;SDS011;1588;50.892;7.082;2023-06-04T14:20:34;2.90;;;1.40;;
3155;SDS011;1588;50.892;7.082;2023-06-04T14:25:37;2.00;;;1.80;;
3155;SDS011;1588;50.892;7.082;2023-06-04T14:30:44;5.13;;;1.60;;
3155;SDS011;1588;50.892;7.082;2023-06-04T14:35:46;2.00;;;1.63;;
3155;SDS011;1588;50.892;7.082;2023-06-04T14:40:49;4.00;;;1.77;;
3155;SDS011;1588;50.892;7.082;2023-06-04T14:45:54;2.00;;;1.80;;
3155;SDS011;1588;50.892;7.082;2023-06-04T14:50:58;1.73;;;1.27;;
3155;SDS011;1588;50.892;7.082;2023-06-04T14:56:08;2.60;;;1.40;;
3155;SDS011;1588;50.892;7.082;2023-06-04T15:01:12;2.20;;;1.77;;
3155;SDS011;1588;50.892;7.082;2023-06-04T15:06:16;2.40;;;1.93;;
3155;SDS011;1588;50.892;7.082;2023-06-04T15:11:21;2.37;;;1.90;;
3155;SDS011;1588;50.892;7.082;2023-06-04T15:16:27;5.37;;;1.80;;
3155;SDS011;1588;50.892;7.082;2023-06-04T15:21:34;2.30;;;1.87;;
3155;SDS011;1588;50.892;7.082;2023-06-04T15:26:36;5.53;;;2.03;;
3155;SDS011;1588;50.892;7.082;2023-06-04T15:31:41;3.30;;;1.97;;
3155;SDS011;1588;50.892;7.082;2023-06-04T15:36:44;4.67;;;2.37;;
3155;SDS011;1588;50.892;7.082;2023-06-04T15:41:48;4.00;;;2.00;;
3155;SDS011;1588;50.892;7.082;2023-06-04T15:46:51;2.60;;;1.87;;
3155;SDS011;1588;50.892;7.082;2023-06-04T15:51:54;2.50;;;1.73;;
3155;SDS011;1588;50.892;7.082;2023-06-04T15:56:56;5.43;;;1.87;;
3155;SDS011;1588;50.892;7.082;2023-06-04T16:02:00;1.90;;;1.80;;
3155;SDS011;1588;50.892;7.082;2023-06-04T16:07:03;2.10;;;1.90;;
3155;SDS011;1588;50.892;7.082;2023-06-04T16:12:06;2.30;;;1.87;;
3155;SDS011;1588;50.892;7.082;2023-06-04T16:17:11;2.13;;;1.90;;
3155;SDS011;1588;50.892;7.082;2023-06-04T16:22:14;11.13;;;2.00;;
3155;SDS011;1588;50.892;7.082;2023-06-04T16:27:16;4.50;;;2.30;;
3155;SDS011;1588;50.892;7.082;2023-06-04T16:32:20;2.93;;;2.40;;
3155;SDS011;1588;50.892;7.082;2023-06-04T16:37:23;4.77;;;2.10;;
3155;SDS011;1588;50.892;7.082;2023-06-04T16:42:27;2.43;;;1.90;;
3155;SDS011;1588;50.892;7.082;2023-06-04T16:47:31;2.53;;;1.50;;
3155;SDS011;1588;50.892;7.082;2023-06-04T16:52:35;3.80;;;2.10;;
3155;SDS011;1588;50.892;7.082;2023-06-04T16:57:38;5.30;;;2.07;;
3155;SDS011;1588;50.892;7.082;2023-06-04T17:02:42;3.73;;;2.43;;
3155;SDS011;1588;50.892;7.082;2023-06-04T17:07:44;2.57;;;1.90;;
3155;SDS011;1588;50.892;7.082;2023-06-04T17:12:46;4.70;;;2.27;;
3155;SDS011;1588;50.892;7.082;2023-06-04T17:17:50;5.60;;;2.07;;
3155;SDS011;1588;50.892;7.082;2023-06-04T17:22:57;2.90;;;1.97;;
3155;SDS011;1588;50.892;7.082;2023-06-04T17:27:59;2.60;;;2.23;;
3155;SDS011;1588;50.892;7.082;2023-06-04T17:33:03;4.73;;;2.30;;
3155;SDS011;1588;50.892;7.082;2023-06-04T17:38:06;2.43;;;2.13;;
3155;SDS011;1588;50.892;7.082;2023-06-04T17:43:08;8.17;;;2.40;;
3155;SDS011;1588;50.892;7.082;2023-06-04T17:48:12;5.20;;;2.10;;
3155;SDS011;1588;50.892;7.082;2023-06-04T17:53:15;6.83;;;2.10;;
3155;SDS011;1588;50.892;7.082;2023-06-04T17:58:17;8.47;;;2.37;;
3155;SDS011;1588;50.892;7.082;2023-06-04T18:03:22;5.13;;;2.53;;
3155;SDS011;1588;50.892;7.082;2023-06-04T18:08:25;3.53;;;2.20;;
3155;SDS011;1588;50.892;7.082;2023-06-04T18:13:27;5.20;;;2.40;;
3155;SDS011;1588;50.892;7.082;2023-06-04T18:18:31;2.40;;;2.10;;
3155;SDS011;1588;50.892;7.082;2023-06-04T18:23:33;2.30;;;2.10;;
3155;SDS011;1588;50.892;7.082;2023-06-04T18:28:36;6.97;;;2.50;;
3155;SDS011;1588;50.892;7.082;2023-06-04T18:33:49;2.93;;;1.87;;
3155;SDS011;1588;50.892;7.082;2023-06-04T18:38:53;2.80;;;2.27;;
3155;SDS011;1588;50.892;7.082;2023-06-04T18:43:56;3.30;;;3.00;;
3155;SDS011;1588;50.892;7.082;2023-06-04T18:49:00;6.33;;;5.70;;
3155;SDS011;1588;50.892;7.082;2023-06-04T18:54:03;3.70;;;2.60;;
3155;SDS011;1588;50.892;7.082;2023-06-04T18:59:06;4.60;;;2.60;;
3155;SDS011;1588;50.892;7.082;2023-06-04T19:04:10;2.70;;;2.50;;
3155;SDS011;1588;50.892;7.082;2023-06-04T19:09:13;5.00;;;2.30;;
3155;SDS011;1588;50.892;7.082;2023-06-04T19:14:15;6.60;;;2.43;;
3155;SDS011;1588;50.892;7.082;2023-06-04T19:19:20;3.93;;;2.50;;
3155;SDS011;1588;50.892;7.082;2023-06-04T19:24:23;3.33;;;2.50;;
3155;SDS011;1588;50.892;7.082;2023-06-04T19:29:26;3.97;;;2.53;;
3155;SDS011;1588;50.892;7.082;2023-06-04T19:34:30;2.60;;;2.17;;
3155;SDS011;1588;50.892;7.082;2023-06-04T19:39:32;2.87;;;2.30;;
3155;SDS011;1588;50.892;7.082;2023-06-04T19:44:35;3.30;;;2.17;;
3155;SDS011;1588;50.892;7.082;2023-06-04T19:49:39;2.57;;;2.33;;
3155;SDS011;1588;50.892;7.082;2023-06-04T19:54:41;3.33;;;2.23;;
3155;SDS011;1588;50.892;7.082;2023-06-04T19:59:44;5.23;;;2.20;;
3155;SDS011;1588;50.892;7.082;2023-06-04T20:04:48;2.57;;;2.07;;
3155;SDS011;1588;50.892;7.082;2023-06-04T20:09:53;2.40;;;2.07;;
3155;SDS011;1588;50.892;7.082;2023-06-04T20:14:55;5.20;;;2.33;;
3155;SDS011;1588;50.892;7.082;2023-06-04T20:20:00;3.90;;;2.00;;
3155;SDS011;1588;50.892;7.082;2023-06-04T20:25:03;9.00;;;2.50;;
3155;SDS011;1588;50.892;7.082;2023-06-04T20:30:07;4.50;;;2.00;;
3155;SDS011;1588;50.892;7.082;2023-06-04T20:35:13;2.40;;;2.20;;
3155;SDS011;1588;50.892;7.082;2023-06-04T20:40:16;2.87;;;2.23;;
3155;SDS011;1588;50.892;7.082;2023-06-04T20:45:18;9.13;;;2.30;;
3155;SDS011;1588;50.892;7.082;2023-06-04T20:50:22;2.57;;;2.17;;
3155;SDS011;1588;50.892;7.082;2023-06-04T20:55:25;4.17;;;2.23;;
3155;SDS011;1588;50.892;7.082;2023-06-04T21:00:28;4.93;;;2.27;;
3155;SDS011;1588;50.892;7.082;2023-06-04T21:05:31;3.53;;;2.43;;
3155;SDS011;1588;50.892;7.082;2023-06-04T21:10:34;3.67;;;2.17;;
3155;SDS011;1588;50.892;7.082;2023-06-04T21:15:36;2.87;;;2.30;;
3155;SDS011;1588;50.892;7.082;2023-06-04T21:20:40;7.47;;;2.77;;
3155;SDS011;1588;50.892;7.082;2023-06-04T21:25:43;6.47;;;1.93;;
3155;SDS011;1588;50.892;7.082;2023-06-04T21:30:45;3.30;;;2.03;;
3155;SDS011;1588;50.892;7.082;2023-06-04T21:35:49;5.43;;;2.50;;
3155;SDS011;1588;50.892;7.082;2023-06-04T21:40:52;3.60;;;2.10;;
3155;SDS011;1588;50.892;7.082;2023-06-04T21:45:54;1.97;;;1.73;;
3155;SDS011;1588;50.892;7.082;2023-06-04T21:50:58;5.77;;;1.73;;
3155;SDS011;1588;50.892;7.082;2023-06-04T21:56:01;5.27;;;1.80;;
3155;SDS011;1588;50.892;7.082;2023-06-04T22:01:03;2.53;;;1.70;;
3155;SDS011;1588;50.892;7.082;2023-06-04T22:06:07;3.83;;;2.30;;
3155;SDS011;1588;50.892;7.082;2023-06-04T22:11:10;2.90;;;1.97;;
3155;SDS011;1588;50.892;7.082;2023-06-04T22:16:12;2.47;;;1.80;;
3155;SDS011;1588;50.892;7.082;2023-06-04T22:21:16;4.53;;;1.93;;
3155;SDS011;1588;50.892;7.082;2023-06-04T22:26:20;2.27;;;1.70;;
3155;SDS011;1588;50.892;7.082;2023-06-04T22:31:23;5.37;;;1.90;;
3155;SDS011;1588;50.892;7.082;2023-06-04T22:36:28;12.53;;;1.93;;
3155;SDS011;1588;50.892;7.082;2023-06-04T22:41:30;3.47;;;1.77;;
3155;SDS011;1588;50.892;7.082;2023-06-04T22:46:33;1.80;;;1.50;;
3155;SDS011;1588;50.892;7.082;2023-06-04T22:51:37;1.77;;;1.50;;
3155;SDS011;1588;50.892;7.082;2023-06-04T22:56:39;3.67;;;1.90;;
3155;SDS011;1588;50.892;7.082;2023-06-04T23:01:41;7.73;;;2.30;;
3155;SDS011;1588;50.892;7.082;2023-06-04T23:06:45;6.70;;;1.90;;
3155;SDS011;1588;50.892;7.082;2023-06-04T23:11:48;7.53;;;2.03;;
3155;SDS011;1588;50.892;7.082;2023-06-04T23:16:50;8.60;;;2.43;;
3155;SDS011;1588;50.892;7.082;2023-06-04T23:21:55;5.97;;;2.27;;
3155;SDS011;1588;50.892;7.082;2023-06-04T23:26:57;2.97;;;2.53;;
3155;SDS011;1588;50.892;7.082;2023-06-04T23:32:00;4.80;;;2.37;;
3155;SDS011;1588;50.892;7.082;2023-06-04T23:37:04;8.40;;;3.00;;
3155;SDS011;1588;50.892;7.082;2023-06-04T23:42:06;4.80;;;2.87;;
3155;SDS011;1588;50.892;7.082;2023-06-04T23:47:09;4.93;;;2.23;;
3155;SDS011;1588;50.892;7.082;2023-06-04T23:52:13;5.50;;;2.50;;
3155;SDS011;1588;50.892;7.082;2023-06-04T23:57:17;8.70;;;2.63;;
